Time;durP1;ratioP1;P1;durP2;ratioP2;P2;SDS_P1;SDS_P2;PMS_P1;PMS_P2;Temp;Humidity;BMP_temperature;BMP_pressure;BME280_temperature;BME280_humidity;BME280_pressure;Samples;Min_cycle;Max_cycle;Signal;HPM_P1;HPM_P2
2022/09/02 00:00:24;;;;;;;11.32;1.10;;;;;;;;;;5051067;28;21022;-14
2022/09/02 00:02:51;;;;;;;3.60;0.90;;;;;;;;;;5050443;28;20249;-13
2022/09/02 00:05:19;;;;;;;2.63;0.60;;;;;;;;;;5037019;28;20284;-14
2022/09/02 00:07:47;;;;;;;7.50;0.82;;;;;;;;;;5051799;28;20615;-14
2022/09/02 00:10:14;;;;;;;1.90;0.65;;;;;;;;;;5050380;28;20720;-13
2022/09/02 00:12:42;;;;;;;5.30;0.80;;;;;;;;;;5049532;28;20230;-14
2022/09/02 00:15:09;;;;;;;4.00;0.65;;;;;;;;;;5049984;28;20286;-14
2022/09/02 00:17:38;;;;;;;5.30;0.70;;;;;;;;;;5047496;28;20717;-14
2022/09/02 00:20:08;;;;;;;3.92;0.80;;;;;;;;;;5042822;28;20230;-14
2022/09/02 00:22:36;;;;;;;4.82;1.25;;;;;;;;;;5050181;28;20245;-14
2022/09/02 00:25:03;;;;;;;5.53;0.60;;;;;;;;;;5061840;28;20234;-14
2022/09/02 00:27:31;;;;;;;4.35;0.93;;;;;;;;;;5062067;28;20700;-14
2022/09/02 00:29:58;;;;;;;5.13;0.90;;;;;;;;;;5049668;28;20237;-14
2022/09/02 00:32:25;;;;;;;1.35;0.57;;;;;;;;;;5057629;28;20240;-14
2022/09/02 00:34:54;;;;;;;4.72;0.68;;;;;;;;;;5052954;28;20614;-14
2022/09/02 00:37:23;;;;;;;4.32;0.63;;;;;;;;;;5064939;28;20712;-14
2022/09/02 00:39:51;;;;;;;3.20;0.75;;;;;;;;;;5069844;28;20611;-14
2022/09/02 00:42:19;;;;;;;2.05;0.50;;;;;;;;;;5069576;28;20233;-14
2022/09/02 00:44:46;;;;;;;3.47;0.90;;;;;;;;;;5047355;28;20234;-14
2022/09/02 00:47:14;;;;;;;5.90;0.65;;;;;;;;;;5057563;28;20244;-14
2022/09/02 00:49:42;;;;;;;1.65;0.60;;;;;;;;;;5070015;28;20241;-14
2022/09/02 00:52:12;;;;;;;1.92;0.77;;;;;;;;;;5050814;28;20241;-14
2022/09/02 00:54:41;;;;;;;1.92;0.80;;;;;;;;;;5055692;28;20238;-14
2022/09/02 00:57:08;;;;;;;4.07;0.60;;;;;;;;;;5066721;28;20232;-14
2022/09/02 00:59:43;;;;;;;4.53;0.55;;;;;;;;;;5066078;28;20225;-14
2022/09/02 01:02:10;;;;;;;2.45;0.57;;;;;;;;;;5052931;28;20232;-14
2022/09/02 01:04:38;;;;;;;1.80;0.70;;;;;;;;;;5052643;28;21039;-14
2022/09/02 01:07:05;;;;;;;1.48;0.50;;;;;;;;;;5055862;28;20242;-13
2022/09/02 01:09:35;;;;;;;2.55;0.60;;;;;;;;;;5041111;28;21072;-14
2022/09/02 01:12:03;;;;;;;1.48;0.80;;;;;;;;;;5047116;28;20234;-14
2022/09/02 01:14:30;;;;;;;2.30;0.50;;;;;;;;;;5048507;28;20226;-14
2022/09/02 01:16:59;;;;;;;2.10;0.93;;;;;;;;;;5048140;28;21014;-14
2022/09/02 01:19:28;;;;;;;1.55;0.70;;;;;;;;;;5049157;28;20857;-14
2022/09/02 01:21:57;;;;;;;1.23;0.50;;;;;;;;;;5048672;28;20340;-14
2022/09/02 01:24:26;;;;;;;4.05;0.82;;;;;;;;;;5048029;28;20229;-14
2022/09/02 01:26:53;;;;;;;2.80;0.70;;;;;;;;;;5058400;28;20236;-13
2022/09/02 01:29:21;;;;;;;1.63;0.68;;;;;;;;;;5072356;28;21088;-13
2022/09/02 01:31:48;;;;;;;2.08;0.70;;;;;;;;;;5065496;28;20233;-13
2022/09/02 01:34:16;;;;;;;1.77;0.63;;;;;;;;;;5072839;28;20233;-13
2022/09/02 01:36:43;;;;;;;4.07;0.60;;;;;;;;;;5065471;28;20225;-13
2022/09/02 01:39:13;;;;;;;2.78;0.95;;;;;;;;;;5065368;28;20234;-14
2022/09/02 01:41:40;;;;;;;1.42;0.60;;;;;;;;;;5043705;28;20229;-13
2022/09/02 01:44:07;;;;;;;1.55;0.50;;;;;;;;;;5072416;28;20229;-13
2022/09/02 01:46:35;;;;;;;4.65;0.75;;;;;;;;;;5059603;28;20772;-13
2022/09/02 01:49:02;;;;;;;1.35;0.50;;;;;;;;;;5048608;28;20342;-15
2022/09/02 01:51:30;;;;;;;4.03;0.88;;;;;;;;;;5064589;28;20229;-15
2022/09/02 01:53:57;;;;;;;2.63;0.60;;;;;;;;;;5072256;28;20232;-15
2022/09/02 01:56:26;;;;;;;1.50;0.50;;;;;;;;;;5067576;28;20246;-14
2022/09/02 01:58:53;;;;;;;0.77;0.40;;;;;;;;;;5063492;28;20712;-15
2022/09/02 02:01:21;;;;;;;2.55;0.55;;;;;;;;;;5061826;28;20234;-15
2022/09/02 02:03:48;;;;;;;1.27;0.43;;;;;;;;;;5065912;28;20234;-15
2022/09/02 02:06:16;;;;;;;3.53;0.80;;;;;;;;;;5055293;28;20509;-15
2022/09/02 02:08:43;;;;;;;0.90;0.60;;;;;;;;;;5050077;28;21027;-14
2022/09/02 02:11:11;;;;;;;2.17;0.50;;;;;;;;;;5072509;28;20229;-15
2022/09/02 02:13:39;;;;;;;0.90;0.60;;;;;;;;;;5071820;28;20236;-15
2022/09/02 02:16:07;;;;;;;2.15;0.60;;;;;;;;;;5061764;28;20673;-15
2022/09/02 02:18:34;;;;;;;2.08;0.47;;;;;;;;;;5072005;28;20272;-14
2022/09/02 02:21:01;;;;;;;2.63;0.70;;;;;;;;;;5055568;28;20238;-15
2022/09/02 02:23:29;;;;;;;1.17;0.45;;;;;;;;;;5051651;28;20249;-15
2022/09/02 02:25:56;;;;;;;0.95;0.75;;;;;;;;;;5053143;28;20226;-15
2022/09/02 02:28:23;;;;;;;4.28;0.70;;;;;;;;;;5052619;28;20245;-15
2022/09/02 02:30:52;;;;;;;1.55;0.75;;;;;;;;;;5047873;28;20230;-15
2022/09/02 02:33:20;;;;;;;1.08;0.47;;;;;;;;;;5052332;28;20333;-14
2022/09/02 02:35:52;;;;;;;2.97;0.70;;;;;;;;;;5052073;28;21000;-15
2022/09/02 02:38:21;;;;;;;4.22;0.60;;;;;;;;;;5046755;28;20234;-14
2022/09/02 02:40:49;;;;;;;2.17;0.60;;;;;;;;;;5051410;28;20233;-15
2022/09/02 02:43:16;;;;;;;1.55;0.50;;;;;;;;;;5050838;28;20278;-15
2022/09/02 02:45:44;;;;;;;1.10;0.60;;;;;;;;;;5046221;28;20317;-15
2022/09/02 02:48:13;;;;;;;3.97;0.50;;;;;;;;;;5046166;28;20238;-15
2022/09/02 02:50:41;;;;;;;1.60;0.70;;;;;;;;;;5051179;28;20241;-14
2022/09/02 02:53:08;;;;;;;3.95;0.57;;;;;;;;;;5049201;28;20226;-15
2022/09/02 02:55:40;;;;;;;2.20;0.80;;;;;;;;;;5037579;28;20238;-14
2022/09/02 02:58:07;;;;;;;5.03;0.80;;;;;;;;;;5051089;28;20732;-15
2022/09/02 03:00:35;;;;;;;1.40;0.70;;;;;;;;;;5050819;28;20714;-15
2022/09/02 03:03:03;;;;;;;2.60;0.50;;;;;;;;;;5040806;28;20241;-15
2022/09/02 03:05:32;;;;;;;0.70;0.50;;;;;;;;;;5050411;28;20273;-15
2022/09/02 03:08:00;;;;;;;2.63;0.63;;;;;;;;;;5051189;28;20238;-14
2022/09/02 03:10:27;;;;;;;2.28;0.82;;;;;;;;;;5049449;28;20854;-15
2022/09/02 03:12:54;;;;;;;1.27;0.50;;;;;;;;;;5039139;28;20724;-15
2022/09/02 03:15:22;;;;;;;2.05;0.65;;;;;;;;;;5049917;28;20245;-15
2022/09/02 03:17:49;;;;;;;2.33;0.50;;;;;;;;;;5050862;28;20279;-15
2022/09/02 03:20:17;;;;;;;1.50;0.60;;;;;;;;;;5047857;28;20226;-15
2022/09/02 03:22:46;;;;;;;3.15;0.50;;;;;;;;;;5046923;28;20249;-14
2022/09/02 03:25:14;;;;;;;0.98;0.52;;;;;;;;;;5041610;28;20238;-15
2022/09/02 03:27:44;;;;;;;1.08;0.60;;;;;;;;;;5050710;28;21042;-15
2022/09/02 03:30:13;;;;;;;0.93;0.60;;;;;;;;;;5044306;28;20319;-14
2022/09/02 03:32:41;;;;;;;1.63;0.50;;;;;;;;;;5050687;28;20233;-15
2022/09/02 03:35:09;;;;;;;0.80;0.43;;;;;;;;;;5050285;28;20225;-14
2022/09/02 03:37:36;;;;;;;4.38;0.38;;;;;;;;;;5049490;28;20230;-15
2022/09/02 03:40:05;;;;;;;1.35;0.50;;;;;;;;;;5039124;28;20226;-15
2022/09/02 03:42:33;;;;;;;1.05;0.40;;;;;;;;;;5050876;28;20239;-15
2022/09/02 03:45:00;;;;;;;3.03;0.70;;;;;;;;;;5050182;28;20253;-15
2022/09/02 03:47:29;;;;;;;1.15;0.50;;;;;;;;;;5047251;28;20234;-15
2022/09/02 03:49:57;;;;;;;1.90;0.40;;;;;;;;;;5049755;28;20223;-15
2022/09/02 03:52:24;;;;;;;1.65;0.50;;;;;;;;;;5049504;28;20226;-15
2022/09/02 03:54:51;;;;;;;1.50;0.60;;;;;;;;;;5047649;28;20834;-15
2022/09/02 03:57:24;;;;;;;2.35;0.40;;;;;;;;;;5044169;28;20676;-15
2022/09/02 03:59:51;;;;;;;0.98;0.40;;;;;;;;;;5049398;28;20696;-15
2022/09/02 04:02:19;;;;;;;3.55;0.50;;;;;;;;;;5050366;28;20238;-15
2022/09/02 04:04:46;;;;;;;3.40;0.70;;;;;;;;;;5049394;28;20234;-14
2022/09/02 04:07:14;;;;;;;1.67;0.70;;;;;;;;;;5036976;28;20226;-15
2022/09/02 04:09:41;;;;;;;0.98;0.60;;;;;;;;;;5049525;28;20257;-15
2022/09/02 04:12:13;;;;;;;1.30;0.60;;;;;;;;;;5050085;28;20237;-15
2022/09/02 04:14:41;;;;;;;1.25;0.52;;;;;;;;;;5038810;28;20257;-15
2022/09/02 04:17:09;;;;;;;2.33;0.65;;;;;;;;;;5047638;28;20230;-15
2022/09/02 04:19:38;;;;;;;0.80;0.50;;;;;;;;;;5049739;28;20272;-15
2022/09/02 04:22:06;;;;;;;1.15;0.80;;;;;;;;;;5043691;28;20301;-15
2022/09/02 04:24:33;;;;;;;0.45;0.40;;;;;;;;;;5048076;28;20230;-15
2022/09/02 04:27:00;;;;;;;2.63;0.70;;;;;;;;;;5050046;28;20222;-14
2022/09/02 04:29:31;;;;;;;1.52;0.50;;;;;;;;;;5050256;28;20713;-15
2022/09/02 04:32:00;;;;;;;2.67;0.60;;;;;;;;;;5048855;28;20284;-15
2022/09/02 04:34:27;;;;;;;3.28;0.85;;;;;;;;;;5047462;28;20238;-15
2022/09/02 04:36:55;;;;;;;2.30;0.77;;;;;;;;;;5037856;28;20237;-14
2022/09/02 04:39:22;;;;;;;2.50;0.55;;;;;;;;;;5046320;28;20227;-15
2022/09/02 04:41:52;;;;;;;2.38;0.85;;;;;;;;;;5049312;28;20789;-14
2022/09/02 04:44:20;;;;;;;1.95;0.70;;;;;;;;;;5049180;28;20230;-14
2022/09/02 04:46:47;;;;;;;3.58;0.50;;;;;;;;;;5042996;28;20230;-14
2022/09/02 04:49:18;;;;;;;0.65;0.52;;;;;;;;;;5049863;28;20856;-14
2022/09/02 04:51:45;;;;;;;2.70;0.63;;;;;;;;;;5049359;28;20230;-14
2022/09/02 04:54:13;;;;;;;3.00;0.50;;;;;;;;;;5040574;28;20711;-14
2022/09/02 04:56:40;;;;;;;1.05;0.55;;;;;;;;;;5046955;28;20966;-14
2022/09/02 04:59:07;;;;;;;3.28;0.60;;;;;;;;;;5040354;28;20226;-14
2022/09/02 05:01:35;;;;;;;3.08;0.63;;;;;;;;;;5044773;28;20603;-15
2022/09/02 05:04:06;;;;;;;0.85;0.60;;;;;;;;;;5042359;28;20236;-14
2022/09/02 05:06:34;;;;;;;2.20;0.50;;;;;;;;;;5048756;28;20226;-14
2022/09/02 05:09:04;;;;;;;1.17;0.45;;;;;;;;;;5049760;28;20246;-14
2022/09/02 05:11:32;;;;;;;2.50;0.50;;;;;;;;;;5035697;28;20231;-15
2022/09/02 05:14:00;;;;;;;1.58;0.50;;;;;;;;;;5049716;28;20222;-15
2022/09/02 05:16:28;;;;;;;4.85;0.70;;;;;;;;;;5048351;28;20572;-14
2022/09/02 05:18:55;;;;;;;0.75;0.50;;;;;;;;;;5048713;28;21094;-14
2022/09/02 05:21:23;;;;;;;2.33;0.60;;;;;;;;;;5048567;28;20889;-14
2022/09/02 05:23:52;;;;;;;1.23;0.50;;;;;;;;;;5046340;28;20241;-14
2022/09/02 05:26:21;;;;;;;2.75;0.57;;;;;;;;;;5037147;28;20273;-14
2022/09/02 05:28:48;;;;;;;1.40;0.60;;;;;;;;;;5047329;28;20253;-14
2022/09/02 05:31:17;;;;;;;0.90;0.65;;;;;;;;;;5042908;28;20301;-14
2022/09/02 05:33:45;;;;;;;1.58;0.60;;;;;;;;;;5037436;28;20226;-14
2022/09/02 05:36:13;;;;;;;3.00;0.60;;;;;;;;;;5045969;28;20705;-14
2022/09/02 05:38:40;;;;;;;2.92;0.68;;;;;;;;;;5048566;28;20230;-14
2022/09/02 05:41:10;;;;;;;2.40;0.73;;;;;;;;;;5048818;28;20611;-14
2022/09/02 05:43:37;;;;;;;1.65;0.75;;;;;;;;;;5047296;28;20713;-14
2022/09/02 05:46:06;;;;;;;0.93;0.60;;;;;;;;;;5048955;28;20587;-14
2022/09/02 05:51:19;;;;;;;2.28;0.90;;;;;;;;;;5048325;28;20245;-15
2022/09/02 05:53:47;;;;;;;4.72;0.80;;;;;;;;;;5048585;28;20233;-14
2022/09/02 05:56:15;;;;;;;4.13;0.80;;;;;;;;;;5048624;28;20230;-14
2022/09/02 05:58:43;;;;;;;1.90;0.80;;;;;;;;;;5035099;28;20234;-14
2022/09/02 06:01:11;;;;;;;1.90;0.70;;;;;;;;;;5046909;28;20234;-14
2022/09/02 06:03:38;;;;;;;1.05;0.75;;;;;;;;;;5048467;28;20242;-14
2022/09/02 06:06:05;;;;;;;0.90;0.60;;;;;;;;;;5048753;28;20235;-14
2022/09/02 06:08:33;;;;;;;2.25;0.70;;;;;;;;;;5034031;28;20329;-14
2022/09/02 06:11:00;;;;;;;2.28;0.75;;;;;;;;;;5047941;28;20341;-15
2022/09/02 06:13:29;;;;;;;0.90;0.60;;;;;;;;;;5048218;28;20233;-14
2022/09/02 06:15:57;;;;;;;1.35;0.68;;;;;;;;;;5047664;28;20238;-14
2022/09/02 06:18:24;;;;;;;2.42;0.60;;;;;;;;;;5051867;28;20322;-14
2022/09/02 06:20:53;;;;;;;4.75;0.60;;;;;;;;;;5045710;28;20860;-14
2022/09/02 06:23:20;;;;;;;4.03;0.80;;;;;;;;;;5036985;28;20245;-14
2022/09/02 06:25:48;;;;;;;1.50;0.60;;;;;;;;;;5051013;28;20231;-14
2022/09/02 06:28:15;;;;;;;2.55;0.63;;;;;;;;;;5051656;28;20234;-14
2022/09/02 06:30:44;;;;;;;1.40;0.50;;;;;;;;;;5050783;28;20859;-14
2022/09/02 06:33:12;;;;;;;5.38;0.73;;;;;;;;;;5051075;28;20233;-14
2022/09/02 06:35:39;;;;;;;4.05;0.60;;;;;;;;;;5051784;28;20237;-14
2022/09/02 06:38:07;;;;;;;5.55;0.70;;;;;;;;;;5050174;28;20230;-15
2022/09/02 06:40:34;;;;;;;4.90;0.70;;;;;;;;;;5042366;28;20230;-14
2022/09/02 06:43:02;;;;;;;10.32;1.00;;;;;;;;;;5037539;28;20316;-15
2022/09/02 06:45:30;;;;;;;4.68;0.80;;;;;;;;;;5067066;28;20226;-14
2022/09/02 06:47:58;;;;;;;4.43;0.80;;;;;;;;;;5050410;28;20234;-14
2022/09/02 06:50:26;;;;;;;3.15;0.80;;;;;;;;;;5051600;28;20739;-15
2022/09/02 06:52:54;;;;;;;3.25;0.75;;;;;;;;;;5051530;28;20743;-15
2022/09/02 06:55:21;;;;;;;1.23;0.70;;;;;;;;;;5051492;28;20621;-15
2022/09/02 06:57:49;;;;;;;2.60;1.10;;;;;;;;;;5044582;28;20229;-14
2022/09/02 07:00:16;;;;;;;4.38;0.60;;;;;;;;;;5051725;28;20244;-14
2022/09/02 07:05:08;;;;;;;4.10;0.60;;;;;;;;;;5051511;28;21001;-14
2022/09/02 07:05:31;;;;;;;3.28;0.98;;;;;;;;;;5036393;28;20582;-14
2022/09/02 07:07:59;;;;;;;3.95;1.00;;;;;;;;;;5051213;28;20284;-14
2022/09/02 07:10:26;;;;;;;2.95;0.80;;;;;;;;;;5051375;28;20245;-14
2022/09/02 07:12:53;;;;;;;6.32;0.88;;;;;;;;;;5051253;28;20245;-14
2022/09/02 07:15:21;;;;;;;4.20;0.73;;;;;;;;;;5043447;28;20618;-15
2022/09/02 07:17:49;;;;;;;4.78;0.88;;;;;;;;;;5048329;28;20277;-15
2022/09/02 07:20:16;;;;;;;3.03;0.63;;;;;;;;;;5050041;28;20238;-15
2022/09/02 07:22:45;;;;;;;5.45;0.90;;;;;;;;;;5048482;28;20250;-15
2022/09/02 07:25:12;;;;;;;1.85;0.70;;;;;;;;;;5049873;28;20234;-15
2022/09/02 07:27:40;;;;;;;7.25;1.10;;;;;;;;;;5049516;28;20328;-13
2022/09/02 07:30:07;;;;;;;3.13;0.82;;;;;;;;;;5048387;28;20242;-13
2022/09/02 07:32:35;;;;;;;3.20;0.63;;;;;;;;;;5049780;28;20600;-13
2022/09/02 07:35:04;;;;;;;2.22;0.93;;;;;;;;;;5046753;28;20666;-16
2022/09/02 07:37:33;;;;;;;3.22;0.90;;;;;;;;;;5049343;28;20226;-13
2022/09/02 07:40:02;;;;;;;2.10;0.80;;;;;;;;;;5045080;28;20694;-15
2022/09/02 07:42:29;;;;;;;4.97;0.93;;;;;;;;;;5049459;28;20705;-15
2022/09/02 07:44:56;;;;;;;5.18;0.98;;;;;;;;;;5048235;28;20227;-15
2022/09/02 07:47:24;;;;;;;4.43;1.20;;;;;;;;;;5049227;28;20242;-15
2022/09/02 07:49:52;;;;;;;4.07;1.23;;;;;;;;;;5045845;28;20242;-15
2022/09/02 07:52:39;;;;;;;4.72;0.80;;;;;;;;;;5036738;28;20257;-15
2022/09/02 07:55:09;;;;;;;1.92;0.80;;;;;;;;;;5047348;28;20236;-15
2022/09/02 07:57:41;;;;;;;4.22;0.93;;;;;;;;;;5048967;28;20724;-15
2022/09/02 08:00:11;;;;;;;5.03;1.00;;;;;;;;;;5047180;28;20242;-15
2022/09/02 08:02:38;;;;;;;9.00;0.82;;;;;;;;;;5048182;28;20238;-15
2022/09/02 08:05:05;;;;;;;2.85;0.90;;;;;;;;;;5049492;28;20237;-15
2022/09/02 08:07:33;;;;;;;5.72;0.90;;;;;;;;;;5050280;28;20225;-16
2022/09/02 08:10:00;;;;;;;4.60;0.93;;;;;;;;;;5049523;28;20241;-15
2022/09/02 08:12:29;;;;;;;6.30;0.80;;;;;;;;;;5050187;28;20242;-15
2022/09/02 08:14:57;;;;;;;1.55;0.90;;;;;;;;;;5047677;28;20234;-15
2022/09/02 08:17:24;;;;;;;7.40;0.80;;;;;;;;;;5046359;28;20723;-15
2022/09/02 08:19:52;;;;;;;4.55;0.95;;;;;;;;;;5040256;28;20350;-16
2022/09/02 08:22:19;;;;;;;7.13;1.35;;;;;;;;;;5039695;28;20249;-14
2022/09/02 08:24:47;;;;;;;5.18;1.20;;;;;;;;;;5039283;28;20230;-15
2022/09/02 08:27:14;;;;;;;1.90;0.80;;;;;;;;;;5034667;28;20230;-14
2022/09/02 08:29:43;;;;;;;5.10;1.33;;;;;;;;;;5041528;28;20229;-15
2022/09/02 08:32:10;;;;;;;4.65;1.13;;;;;;;;;;5041585;28;20697;-15
2022/09/02 08:34:38;;;;;;;7.55;1.40;;;;;;;;;;5034582;28;22060;-15
2022/09/02 08:37:06;;;;;;;1.75;0.80;;;;;;;;;;5041076;28;20222;-15
2022/09/02 08:39:33;;;;;;;5.65;1.52;;;;;;;;;;5036828;28;20686;-13
2022/09/02 08:42:02;;;;;;;4.43;1.30;;;;;;;;;;5040641;28;20698;-15
2022/09/02 08:44:30;;;;;;;5.10;1.05;;;;;;;;;;5039127;28;20606;-15
2022/09/02 08:46:59;;;;;;;3.08;0.90;;;;;;;;;;5041013;28;20678;-13
2022/09/02 08:49:27;;;;;;;5.60;1.45;;;;;;;;;;5039521;28;20728;-13
2022/09/02 08:51:56;;;;;;;8.80;1.55;;;;;;;;;;5041374;28;20370;-13
2022/09/02 08:54:29;;;;;;;5.45;0.95;;;;;;;;;;5041426;28;20234;-13
2022/09/02 08:56:56;;;;;;;7.07;1.00;;;;;;;;;;5036895;28;21050;-15
2022/09/02 08:59:25;;;;;;;5.18;1.13;;;;;;;;;;5032938;28;21279;-13
2022/09/02 09:01:54;;;;;;;3.30;0.90;;;;;;;;;;5039283;28;20238;-15
2022/09/02 09:04:29;;;;;;;2.22;0.90;;;;;;;;;;5040561;28;20222;-13
2022/09/02 09:07:07;;;;;;;3.60;1.23;;;;;;;;;;5038992;28;20244;-15
2022/09/02 09:09:37;;;;;;;5.63;1.63;;;;;;;;;;5042040;28;20233;-14
2022/09/02 09:12:07;;;;;;;3.58;1.05;;;;;;;;;;5041221;28;20237;-15
2022/09/02 09:14:35;;;;;;;5.63;1.05;;;;;;;;;;5040889;28;20681;-15
2022/09/02 09:17:05;;;;;;;4.20;1.15;;;;;;;;;;5039065;28;20681;-15
2022/09/02 09:19:37;;;;;;;3.25;1.05;;;;;;;;;;5041106;28;20242;-13
2022/09/02 09:22:04;;;;;;;1.95;1.30;;;;;;;;;;5025863;28;20242;-13
2022/09/02 09:24:34;;;;;;;3.17;0.90;;;;;;;;;;5025041;28;20234;-15
2022/09/02 09:27:01;;;;;;;2.75;1.25;;;;;;;;;;5035955;28;20234;-15
2022/09/02 09:29:31;;;;;;;5.80;1.27;;;;;;;;;;5041005;28;20230;-16
2022/09/02 09:31:58;;;;;;;2.45;1.33;;;;;;;;;;5045231;28;20797;-14
2022/09/02 09:34:45;;;;;;;3.40;1.40;;;;;;;;;;5040942;28;20234;-13
2022/09/02 09:37:15;;;;;;;2.13;1.10;;;;;;;;;;5049260;28;20233;-14
2022/09/02 09:39:42;;;;;;;7.40;1.75;;;;;;;;;;5043767;28;20253;-13
2022/09/02 09:42:12;;;;;;;3.90;2.15;;;;;;;;;;5047553;28;20800;-14
2022/09/02 09:44:43;;;;;;;1.98;1.75;;;;;;;;;;5048808;28;20237;-13
2022/09/02 09:47:14;;;;;;;4.07;1.80;;;;;;;;;;5047270;28;20226;-14
2022/09/02 09:49:45;;;;;;;6.05;1.80;;;;;;;;;;5048907;28;20229;-14
2022/09/02 09:52:21;;;;;;;5.38;1.83;;;;;;;;;;5051482;28;20249;-14
2022/09/02 09:54:50;;;;;;;5.10;1.90;;;;;;;;;;5051226;28;20234;-14
2022/09/02 09:57:19;;;;;;;9.95;2.30;;;;;;;;;;5052013;28;20245;-14
2022/09/02 09:59:48;;;;;;;4.60;1.70;;;;;;;;;;5052413;28;20242;-14
2022/09/02 10:02:20;;;;;;;3.38;1.80;;;;;;;;;;5045454;28;20245;-14
2022/09/02 10:04:48;;;;;;;6.65;1.60;;;;;;;;;;5041713;28;20724;-13
2022/09/02 10:07:23;;;;;;;7.13;1.85;;;;;;;;;;5051439;28;20670;-14
2022/09/02 10:09:54;;;;;;;6.32;1.98;;;;;;;;;;5047114;28;20238;-14
2022/09/02 10:12:30;;;;;;;4.88;1.80;;;;;;;;;;5046850;28;20349;-14
2022/09/02 10:14:58;;;;;;;2.90;1.70;;;;;;;;;;5051536;28;20233;-14
2022/09/02 10:17:27;;;;;;;4.40;2.20;;;;;;;;;;5049490;28;20234;-14
2022/09/02 10:19:57;;;;;;;8.40;1.77;;;;;;;;;;5039951;28;20230;-14
2022/09/02 10:22:33;;;;;;;5.57;1.73;;;;;;;;;;5046678;28;20847;-13
2022/09/02 10:25:22;;;;;;;5.28;1.95;;;;;;;;;;5048269;28;20260;-14
2022/09/02 10:27:51;;;;;;;9.20;1.75;;;;;;;;;;5045538;28;20238;-14
2022/09/02 10:30:19;;;;;;;3.10;1.80;;;;;;;;;;5052562;28;20234;-14
2022/09/02 10:32:50;;;;;;;5.03;1.67;;;;;;;;;;5050953;28;20234;-15
2022/09/02 10:35:21;;;;;;;3.67;1.35;;;;;;;;;;5040842;28;20234;-14
2022/09/02 10:37:55;;;;;;;4.65;1.70;;;;;;;;;;5050714;28;20234;-14
2022/09/02 10:40:24;;;;;;;3.47;1.80;;;;;;;;;;5050999;28;20237;-14
2022/09/02 10:42:57;;;;;;;4.30;1.95;;;;;;;;;;5039336;28;20262;-14
2022/09/02 10:45:24;;;;;;;5.55;1.85;;;;;;;;;;5048520;28;20979;-14
2022/09/02 10:47:53;;;;;;;5.32;1.83;;;;;;;;;;5050229;28;20239;-14
2022/09/02 10:50:25;;;;;;;3.45;1.52;;;;;;;;;;5048140;28;20289;-14
2022/09/02 10:52:57;;;;;;;5.07;1.50;;;;;;;;;;5043836;28;20249;-14
2022/09/02 10:55:25;;;;;;;4.35;1.80;;;;;;;;;;5038356;28;20234;-14
2022/09/02 10:57:54;;;;;;;5.85;1.98;;;;;;;;;;5049845;28;20241;-14
2022/09/02 11:00:21;;;;;;;2.90;1.90;;;;;;;;;;5048148;28;20284;-14
2022/09/02 11:02:50;;;;;;;5.60;1.80;;;;;;;;;;5048962;28;20237;-14
2022/09/02 11:05:18;;;;;;;5.45;1.73;;;;;;;;;;5050450;28;20230;-13
2022/09/02 11:07:49;;;;;;;5.78;1.70;;;;;;;;;;5042829;28;20241;-14
2022/09/02 11:10:17;;;;;;;4.20;1.92;;;;;;;;;;5052732;28;20241;-14
2022/09/02 11:12:46;;;;;;;4.45;1.92;;;;;;;;;;5047786;28;20248;-14
2022/09/02 11:15:15;;;;;;;7.97;1.92;;;;;;;;;;5048420;28;20234;-14
2022/09/02 11:17:44;;;;;;;5.57;1.92;;;;;;;;;;5046505;28;20249;-14
2022/09/02 11:20:13;;;;;;;3.15;1.80;;;;;;;;;;5051265;28;20226;-14
2022/09/02 11:22:42;;;;;;;7.38;2.05;;;;;;;;;;5047454;28;20257;-14
2022/09/02 11:25:12;;;;;;;4.07;1.80;;;;;;;;;;5050153;28;20230;-14
2022/09/02 11:27:40;;;;;;;7.75;2.35;;;;;;;;;;5050392;28;20241;-14
2022/09/02 11:30:11;;;;;;;5.05;1.95;;;;;;;;;;5048165;28;21126;-14
2022/09/02 11:32:41;;;;;;;7.85;2.00;;;;;;;;;;5048590;28;20238;-15
2022/09/02 11:35:09;;;;;;;6.78;2.10;;;;;;;;;;5048874;28;20267;-15
2022/09/02 11:37:39;;;;;;;6.38;2.45;;;;;;;;;;5050481;28;21380;-15
2022/09/02 11:40:07;;;;;;;3.08;2.38;;;;;;;;;;5050074;28;20324;-14
2022/09/02 11:43:03;;;;;;;4.82;2.33;;;;;;;;;;5047030;28;20231;-14
2022/09/02 11:45:53;;;;;;;3.78;2.38;;;;;;;;;;5050998;28;20259;-15
2022/09/02 11:48:35;;;;;;;5.00;2.20;;;;;;;;;;5043963;28;20281;-14
2022/09/02 11:51:30;;;;;;;3.47;2.38;;;;;;;;;;5049634;28;20229;-14
2022/09/02 11:53:58;;;;;;;8.43;2.40;;;;;;;;;;5003717;28;20351;-14
2022/09/02 11:56:27;;;;;;;3.58;2.40;;;;;;;;;;5038931;28;20230;-14
2022/09/02 11:58:56;;;;;;;2.78;2.20;;;;;;;;;;5050554;28;20288;-14
2022/09/02 12:01:27;;;;;;;5.57;2.40;;;;;;;;;;5050854;28;20979;-14
2022/09/02 12:03:57;;;;;;;2.50;2.10;;;;;;;;;;5044002;28;20233;-14
2022/09/02 12:06:59;;;;;;;2.13;1.92;;;;;;;;;;5036519;28;21048;-14
2022/09/02 12:09:43;;;;;;;2.15;1.95;;;;;;;;;;5050378;28;20241;-14
2022/09/02 12:12:31;;;;;;;3.03;2.10;;;;;;;;;;5049036;28;20241;-14
2022/09/02 12:15:10;;;;;;;1.90;1.80;;;;;;;;;;5048273;28;20226;-14
2022/09/02 12:17:44;;;;;;;1.70;1.60;;;;;;;;;;5038243;28;20290;-14
2022/09/02 12:20:12;;;;;;;3.03;1.75;;;;;;;;;;5048495;28;20234;-14
2022/09/02 12:22:39;;;;;;;2.30;1.85;;;;;;;;;;5049006;28;20241;-13
2022/09/02 12:25:27;;;;;;;3.97;1.70;;;;;;;;;;5049679;28;20253;-14
2022/09/02 12:28:08;;;;;;;1.77;1.50;;;;;;;;;;5030523;28;20239;-13
2022/09/02 12:30:51;;;;;;;2.38;1.80;;;;;;;;;;5046805;28;20229;-15
2022/09/02 12:33:20;;;;;;;1.75;1.35;;;;;;;;;;5036125;28;20234;-13
2022/09/02 12:35:51;;;;;;;4.30;1.70;;;;;;;;;;5049310;28;20523;-14
2022/09/02 12:38:28;;;;;;;5.63;1.65;;;;;;;;;;5036523;28;20238;-14
2022/09/02 12:40:58;;;;;;;3.30;1.70;;;;;;;;;;5050728;28;20230;-15
2022/09/02 12:43:26;;;;;;;2.42;1.85;;;;;;;;;;5036515;28;20361;-13
2022/09/02 12:45:55;;;;;;;2.33;1.73;;;;;;;;;;5049562;28;20222;-15
2022/09/02 12:48:24;;;;;;;1.73;1.63;;;;;;;;;;5063159;28;20245;-14
2022/09/02 12:51:04;;;;;;;3.33;1.40;;;;;;;;;;5050342;28;20262;-14
2022/09/02 12:53:33;;;;;;;2.20;1.55;;;;;;;;;;5048827;28;20754;-15
2022/09/02 12:56:02;;;;;;;3.72;1.42;;;;;;;;;;5049884;28;20241;-14
2022/09/02 12:58:32;;;;;;;1.98;1.45;;;;;;;;;;5050343;28;20256;-14
2022/09/02 13:01:01;;;;;;;1.77;1.45;;;;;;;;;;5042592;28;20710;-14
2022/09/02 13:03:36;;;;;;;2.80;1.30;;;;;;;;;;5047101;28;20236;-14
2022/09/02 13:06:05;;;;;;;2.20;1.42;;;;;;;;;;5046760;28;20234;-14
2022/09/02 13:08:38;;;;;;;3.80;1.50;;;;;;;;;;5045961;28;20239;-14
2022/09/02 13:11:20;;;;;;;2.33;1.45;;;;;;;;;;5060122;28;20234;-14
2022/09/02 13:14:06;;;;;;;1.88;1.27;;;;;;;;;;5045828;28;20689;-14
2022/09/02 13:16:37;;;;;;;2.55;1.50;;;;;;;;;;5043833;28;20238;-14
2022/09/02 13:19:26;;;;;;;3.90;1.52;;;;;;;;;;5049643;28;21009;-14
2022/09/02 13:22:02;;;;;;;2.35;1.60;;;;;;;;;;5045576;28;20230;-14
2022/09/02 13:24:34;;;;;;;2.42;1.38;;;;;;;;;;5047954;28;20558;-14
2022/09/02 13:27:19;;;;;;;3.55;1.63;;;;;;;;;;5049893;28;20228;-16
2022/09/02 13:30:01;;;;;;;1.88;1.50;;;;;;;;;;5049395;28;20240;-14
2022/09/02 13:32:29;;;;;;;3.20;1.73;;;;;;;;;;5048420;28;20332;-14
2022/09/02 13:34:58;;;;;;;2.33;1.58;;;;;;;;;;5035714;28;20767;-14
2022/09/02 13:37:30;;;;;;;4.80;1.65;;;;;;;;;;5049963;28;20698;-14
2022/09/02 13:39:57;;;;;;;1.63;1.42;;;;;;;;;;5044944;28;20253;-16
2022/09/02 13:42:25;;;;;;;1.65;1.55;;;;;;;;;;5050301;28;20589;-14
2022/09/02 13:45:08;;;;;;;2.55;1.65;;;;;;;;;;5054507;28;20226;-15
2022/09/02 13:47:36;;;;;;;3.55;1.55;;;;;;;;;;5044839;28;20768;-15
2022/09/02 13:50:03;;;;;;;5.90;1.63;;;;;;;;;;5055088;28;20249;-15
2022/09/02 13:52:34;;;;;;;4.18;2.10;;;;;;;;;;5046181;28;20230;-15
2022/09/02 13:55:21;;;;;;;3.47;1.77;;;;;;;;;;5044928;28;20229;-15
2022/09/02 13:57:52;;;;;;;4.18;1.42;;;;;;;;;;5044608;28;20257;-15
2022/09/02 14:00:25;;;;;;;3.70;1.73;;;;;;;;;;5047142;28;20226;-13
2022/09/02 14:02:54;;;;;;;5.22;1.77;;;;;;;;;;5044361;28;20270;-16
2022/09/02 14:05:23;;;;;;;2.50;1.70;;;;;;;;;;5043845;28;20262;-13
2022/09/02 14:07:52;;;;;;;1.80;1.40;;;;;;;;;;5057549;28;20385;-15
2022/09/02 14:10:21;;;;;;;3.42;1.60;;;;;;;;;;5049567;28;20229;-13
2022/09/02 14:12:48;;;;;;;2.60;1.77;;;;;;;;;;5045749;28;20231;-15
2022/09/02 14:15:16;;;;;;;1.95;1.50;;;;;;;;;;5044593;28;20771;-15
2022/09/02 14:17:43;;;;;;;2.45;1.63;;;;;;;;;;5048580;28;20243;-13
2022/09/02 14:20:16;;;;;;;4.18;1.58;;;;;;;;;;5048024;28;20222;-13
2022/09/02 14:22:43;;;;;;;4.30;1.70;;;;;;;;;;5043308;28;20246;-16
2022/09/02 14:25:13;;;;;;;1.90;1.48;;;;;;;;;;5048484;28;21148;-15
2022/09/02 14:27:40;;;;;;;3.67;1.45;;;;;;;;;;5049278;28;20230;-15
2022/09/02 14:30:09;;;;;;;2.03;1.40;;;;;;;;;;5048414;28;20249;-14
2022/09/02 14:32:36;;;;;;;2.05;1.35;;;;;;;;;;5048944;28;20624;-15
2022/09/02 14:35:11;;;;;;;3.92;1.40;;;;;;;;;;5048957;28;20237;-15
2022/09/02 14:37:48;;;;;;;2.15;1.48;;;;;;;;;;5051306;28;20629;-13
2022/09/02 14:40:18;;;;;;;2.08;1.70;;;;;;;;;;5052106;28;20356;-15
2022/09/02 14:42:45;;;;;;;1.40;1.30;;;;;;;;;;5052176;28;20314;-15
2022/09/02 14:45:13;;;;;;;2.53;1.50;;;;;;;;;;5050314;28;21088;-15
2022/09/02 14:47:40;;;;;;;2.05;1.52;;;;;;;;;;5051429;28;20697;-15
2022/09/02 14:50:11;;;;;;;2.38;1.42;;;;;;;;;;5052583;28;20230;-15
2022/09/02 14:52:38;;;;;;;2.90;1.63;;;;;;;;;;5051949;28;20226;-15
2022/09/02 14:55:06;;;;;;;2.97;1.67;;;;;;;;;;5052021;28;20752;-15
2022/09/02 14:57:37;;;;;;;4.30;1.40;;;;;;;;;;5052302;28;20715;-15
2022/09/02 15:00:06;;;;;;;3.90;1.70;;;;;;;;;;5063185;28;20285;-15